Guerra, Texas
Current Conditions -  °F | °C
As of 10:35 PM on Wednesday 22 Oct 2014 (Local Time) from KAPY Reporting Station
Overcast Overcast  
Wind Chill: 76°   Ceiling: 9000
Heat Index: 76°   Visibility: 10mi
Dew Point: 63°   Wind: 8mph
Humidity: 65%   Direction: 90°E
Pressure: 30.06"   Gusts: NA
Location:  26.88°N, 98.89°W
Report Text: KAPY 230335Z AUTO 09007KT 10SM OVC090 24/17 A3006 RMK AO2 T02420173
Loading
Personal Weather Stations






























Interactive Weather Map
Tropical Storm Tracking
New forecast layout! Learn more

10-Day Weather Forecast

Advertisements
Track Severe Weather on mobile